sensor_id;sensor_type;location;lat;lon;timestamp;temperature;humidity
46590;DHT22;32313;48.722;9.362;2024-03-06T00:01:05;4.40;99.90
46590;DHT22;32313;48.722;9.362;2024-03-06T00:03:32;4.40;99.90
46590;DHT22;32313;48.722;9.362;2024-03-06T00:05:58;4.40;99.90
46590;DHT22;32313;48.722;9.362;2024-03-06T00:08:23;4.40;99.90
46590;DHT22;32313;48.722;9.362;2024-03-06T00:10:49;4.40;99.90
46590;DHT22;32313;48.722;9.362;2024-03-06T00:13:14;4.40;99.90
46590;DHT22;32313;48.722;9.362;2024-03-06T00:15:40;4.40;99.90
46590;DHT22;32313;48.722;9.362;2024-03-06T00:18:06;4.40;99.90
46590;DHT22;32313;48.722;9.362;2024-03-06T00:20:32;4.50;99.90
46590;DHT22;32313;48.722;9.362;2024-03-06T00:22:58;4.50;99.90
46590;DHT22;32313;48.722;9.362;2024-03-06T00:25:25;4.50;99.90
46590;DHT22;32313;48.722;9.362;2024-03-06T00:27:50;4.50;99.90
46590;DHT22;32313;48.722;9.362;2024-03-06T00:30:16;4.50;99.90
46590;DHT22;32313;48.722;9.362;2024-03-06T00:32:43;4.50;99.90
46590;DHT22;32313;48.722;9.362;2024-03-06T00:35:08;4.40;99.90
46590;DHT22;32313;48.722;9.362;2024-03-06T00:37:34;4.40;99.90
46590;DHT22;32313;48.722;9.362;2024-03-06T00:40:00;4.40;99.90
46590;DHT22;32313;48.722;9.362;2024-03-06T00:42:26;4.40;99.90
46590;DHT22;32313;48.722;9.362;2024-03-06T00:44:51;4.40;99.90
46590;DHT22;32313;48.722;9.362;2024-03-06T00:47:17;4.40;99.90
46590;DHT22;32313;48.722;9.362;2024-03-06T00:49:43;4.40;99.90
46590;DHT22;32313;48.722;9.362;2024-03-06T00:52:08;4.30;99.90
46590;DHT22;32313;48.722;9.362;2024-03-06T00:54:35;4.30;99.90
46590;DHT22;32313;48.722;9.362;2024-03-06T00:57:01;4.30;99.90
46590;DHT22;32313;48.722;9.362;2024-03-06T00:59:27;4.30;99.90
46590;DHT22;32313;48.722;9.362;2024-03-06T01:01:53;4.20;99.90
46590;DHT22;32313;48.722;9.362;2024-03-06T01:04:22;4.20;99.90
46590;DHT22;32313;48.722;9.362;2024-03-06T01:06:48;4.20;99.90
46590;DHT22;32313;48.722;9.362;2024-03-06T01:09:13;4.20;99.90
46590;DHT22;32313;48.722;9.362;2024-03-06T01:11:39;4.20;99.90
46590;DHT22;32313;48.722;9.362;2024-03-06T01:14:05;4.20;99.90
46590;DHT22;32313;48.722;9.362;2024-03-06T01:16:30;4.20;99.90
46590;DHT22;32313;48.722;9.362;2024-03-06T01:18:56;4.20;99.90
46590;DHT22;32313;48.722;9.362;2024-03-06T01:21:22;4.20;99.90
46590;DHT22;32313;48.722;9.362;2024-03-06T01:23:48;4.20;99.90
46590;DHT22;32313;48.722;9.362;2024-03-06T01:26:13;4.20;99.90
46590;DHT22;32313;48.722;9.362;2024-03-06T01:28:39;4.20;99.90
46590;DHT22;32313;48.722;9.362;2024-03-06T01:31:05;4.30;99.90
46590;DHT22;32313;48.722;9.362;2024-03-06T01:33:31;4.30;99.90
46590;DHT22;32313;48.722;9.362;2024-03-06T01:35:57;4.30;99.90
46590;DHT22;32313;48.722;9.362;2024-03-06T01:38:23;4.30;99.90
46590;DHT22;32313;48.722;9.362;2024-03-06T01:40:49;4.30;99.90
46590;DHT22;32313;48.722;9.362;2024-03-06T01:43:22;4.30;99.90
46590;DHT22;32313;48.722;9.362;2024-03-06T01:45:49;4.30;99.90
46590;DHT22;32313;48.722;9.362;2024-03-06T01:48:16;4.30;99.90
46590;DHT22;32313;48.722;9.362;2024-03-06T01:50:43;4.30;99.90
46590;DHT22;32313;48.722;9.362;2024-03-06T01:53:09;4.30;99.90
46590;DHT22;32313;48.722;9.362;2024-03-06T01:55:35;4.20;99.90
46590;DHT22;32313;48.722;9.362;2024-03-06T01:58:01;4.20;99.90
46590;DHT22;32313;48.722;9.362;2024-03-06T02:00:28;4.20;99.90
46590;DHT22;32313;48.722;9.362;2024-03-06T02:02:55;4.20;99.90
46590;DHT22;32313;48.722;9.362;2024-03-06T02:05:21;4.20;99.90
46590;DHT22;32313;48.722;9.362;2024-03-06T02:07:47;4.20;99.90
46590;DHT22;32313;48.722;9.362;2024-03-06T02:10:14;4.20;99.90
46590;DHT22;32313;48.722;9.362;2024-03-06T02:12:40;4.20;99.90
46590;DHT22;32313;48.722;9.362;2024-03-06T02:15:07;4.20;99.90
46590;DHT22;32313;48.722;9.362;2024-03-06T02:17:33;4.20;99.90
46590;DHT22;32313;48.722;9.362;2024-03-06T02:19:59;4.20;99.90
46590;DHT22;32313;48.722;9.362;2024-03-06T02:22:25;4.20;99.90
46590;DHT22;32313;48.722;9.362;2024-03-06T02:24:51;4.10;99.90
46590;DHT22;32313;48.722;9.362;2024-03-06T02:27:17;4.10;99.90
46590;DHT22;32313;48.722;9.362;2024-03-06T02:29:43;4.10;99.90
46590;DHT22;32313;48.722;9.362;2024-03-06T02:32:09;4.10;99.90
46590;DHT22;32313;48.722;9.362;2024-03-06T02:34:37;4.10;99.90
46590;DHT22;32313;48.722;9.362;2024-03-06T02:37:03;4.10;99.90
46590;DHT22;32313;48.722;9.362;2024-03-06T02:39:29;4.10;99.90
46590;DHT22;32313;48.722;9.362;2024-03-06T02:41:54;4.10;99.90
46590;DHT22;32313;48.722;9.362;2024-03-06T02:44:20;4.00;99.90
46590;DHT22;32313;48.722;9.362;2024-03-06T02:46:47;4.00;99.90
46590;DHT22;32313;48.722;9.362;2024-03-06T02:49:14;4.10;99.90
46590;DHT22;32313;48.722;9.362;2024-03-06T02:51:40;4.00;99.90
46590;DHT22;32313;48.722;9.362;2024-03-06T02:54:06;4.00;99.90
46590;DHT22;32313;48.722;9.362;2024-03-06T02:56:31;4.10;99.90
46590;DHT22;32313;48.722;9.362;2024-03-06T02:58:57;4.10;99.90
46590;DHT22;32313;48.722;9.362;2024-03-06T03:01:23;4.10;99.90
46590;DHT22;32313;48.722;9.362;2024-03-06T03:03:49;4.10;99.90
46590;DHT22;32313;48.722;9.362;2024-03-06T03:06:16;4.10;99.90
46590;DHT22;32313;48.722;9.362;2024-03-06T03:08:42;4.10;99.90
46590;DHT22;32313;48.722;9.362;2024-03-06T03:11:08;4.10;99.90
46590;DHT22;32313;48.722;9.362;2024-03-06T03:13:33;4.10;99.90
46590;DHT22;32313;48.722;9.362;2024-03-06T03:15:59;4.10;99.90
46590;DHT22;32313;48.722;9.362;2024-03-06T03:18:25;4.10;99.90
46590;DHT22;32313;48.722;9.362;2024-03-06T03:20:50;4.10;99.90
46590;DHT22;32313;48.722;9.362;2024-03-06T03:27:03;4.10;99.90
46590;DHT22;32313;48.722;9.362;2024-03-06T03:29:29;4.20;99.90
46590;DHT22;32313;48.722;9.362;2024-03-06T03:31:55;4.20;99.90
46590;DHT22;32313;48.722;9.362;2024-03-06T03:34:22;4.20;99.90
46590;DHT22;32313;48.722;9.362;2024-03-06T03:36:47;4.20;99.90
46590;DHT22;32313;48.722;9.362;2024-03-06T03:39:14;4.20;99.90
46590;DHT22;32313;48.722;9.362;2024-03-06T03:41:47;4.20;99.90
46590;DHT22;32313;48.722;9.362;2024-03-06T03:44:14;4.20;99.90
46590;DHT22;32313;48.722;9.362;2024-03-06T03:46:40;4.20;99.90
46590;DHT22;32313;48.722;9.362;2024-03-06T03:49:06;4.10;99.90
46590;DHT22;32313;48.722;9.362;2024-03-06T03:51:32;4.10;99.90
46590;DHT22;32313;48.722;9.362;2024-03-06T03:53:57;4.10;99.90
46590;DHT22;32313;48.722;9.362;2024-03-06T03:56:23;4.10;99.90
46590;DHT22;32313;48.722;9.362;2024-03-06T03:58:49;4.10;99.90
46590;DHT22;32313;48.722;9.362;2024-03-06T04:01:15;4.10;99.90
46590;DHT22;32313;48.722;9.362;2024-03-06T04:03:40;4.10;99.90
46590;DHT22;32313;48.722;9.362;2024-03-06T04:06:08;4.10;99.90
46590;DHT22;32313;48.722;9.362;2024-03-06T04:08:34;4.10;99.90
46590;DHT22;32313;48.722;9.362;2024-03-06T04:10:59;4.10;99.90
46590;DHT22;32313;48.722;9.362;2024-03-06T04:13:26;4.10;99.90
46590;DHT22;32313;48.722;9.362;2024-03-06T04:15:51;4.10;99.90
46590;DHT22;32313;48.722;9.362;2024-03-06T04:18:17;4.10;99.90
46590;DHT22;32313;48.722;9.362;2024-03-06T04:20:43;4.00;99.90
46590;DHT22;32313;48.722;9.362;2024-03-06T04:23:08;4.00;99.90
46590;DHT22;32313;48.722;9.362;2024-03-06T04:25:35;4.00;99.90
46590;DHT22;32313;48.722;9.362;2024-03-06T04:28:02;4.00;99.90
46590;DHT22;32313;48.722;9.362;2024-03-06T04:30:28;4.00;99.90
46590;DHT22;32313;48.722;9.362;2024-03-06T04:32:54;4.00;99.90
46590;DHT22;32313;48.722;9.362;2024-03-06T04:35:19;4.00;99.90
46590;DHT22;32313;48.722;9.362;2024-03-06T04:37:45;4.00;99.90
46590;DHT22;32313;48.722;9.362;2024-03-06T04:40:11;4.00;99.90
46590;DHT22;32313;48.722;9.362;2024-03-06T04:42:37;4.00;99.90
46590;DHT22;32313;48.722;9.362;2024-03-06T04:45:03;4.00;99.90
46590;DHT22;32313;48.722;9.362;2024-03-06T04:47:29;4.00;99.90
46590;DHT22;32313;48.722;9.362;2024-03-06T04:49:55;4.00;99.90
46590;DHT22;32313;48.722;9.362;2024-03-06T04:52:21;4.00;99.90
46590;DHT22;32313;48.722;9.362;2024-03-06T04:54:46;4.00;99.90
46590;DHT22;32313;48.722;9.362;2024-03-06T05:00:31;4.00;99.90
46590;DHT22;32313;48.722;9.362;2024-03-06T05:02:57;4.00;99.90
46590;DHT22;32313;48.722;9.362;2024-03-06T05:05:23;4.00;99.90
46590;DHT22;32313;48.722;9.362;2024-03-06T05:07:50;4.00;99.90
46590;DHT22;32313;48.722;9.362;2024-03-06T05:10:17;4.00;99.90
46590;DHT22;32313;48.722;9.362;2024-03-06T05:12:43;4.00;99.90
46590;DHT22;32313;48.722;9.362;2024-03-06T05:15:09;4.00;99.90
46590;DHT22;32313;48.722;9.362;2024-03-06T05:17:35;4.00;99.90
46590;DHT22;32313;48.722;9.362;2024-03-06T05:20:01;4.00;99.90
46590;DHT22;32313;48.722;9.362;2024-03-06T05:22:30;4.00;99.90
46590;DHT22;32313;48.722;9.362;2024-03-06T05:24:56;4.00;99.90
46590;DHT22;32313;48.722;9.362;2024-03-06T05:27:22;4.00;99.90
46590;DHT22;32313;48.722;9.362;2024-03-06T05:29:47;4.00;99.90
46590;DHT22;32313;48.722;9.362;2024-03-06T05:32:13;4.00;99.90
46590;DHT22;32313;48.722;9.362;2024-03-06T05:34:39;4.10;99.90
46590;DHT22;32313;48.722;9.362;2024-03-06T05:37:04;4.10;99.90
46590;DHT22;32313;48.722;9.362;2024-03-06T05:39:31;4.10;99.90
46590;DHT22;32313;48.722;9.362;2024-03-06T05:42:02;4.10;99.90
46590;DHT22;32313;48.722;9.362;2024-03-06T05:44:32;4.10;99.90
46590;DHT22;32313;48.722;9.362;2024-03-06T05:47:02;4.10;99.90
46590;DHT22;32313;48.722;9.362;2024-03-06T05:49:28;4.10;99.90
46590;DHT22;32313;48.722;9.362;2024-03-06T05:51:54;4.20;99.90
46590;DHT22;32313;48.722;9.362;2024-03-06T05:54:22;4.20;99.90
46590;DHT22;32313;48.722;9.362;2024-03-06T05:56:49;4.20;99.90
46590;DHT22;32313;48.722;9.362;2024-03-06T05:59:20;4.20;99.90
46590;DHT22;32313;48.722;9.362;2024-03-06T06:01:46;4.20;99.90
46590;DHT22;32313;48.722;9.362;2024-03-06T06:04:16;4.20;99.90
46590;DHT22;32313;48.722;9.362;2024-03-06T06:06:41;4.20;99.90
46590;DHT22;32313;48.722;9.362;2024-03-06T06:09:07;4.20;99.90
46590;DHT22;32313;48.722;9.362;2024-03-06T06:11:40;4.20;99.90
46590;DHT22;32313;48.722;9.362;2024-03-06T06:14:06;4.20;99.90
46590;DHT22;32313;48.722;9.362;2024-03-06T06:16:39;4.20;99.90
46590;DHT22;32313;48.722;9.362;2024-03-06T06:19:06;4.30;99.90
46590;DHT22;32313;48.722;9.362;2024-03-06T06:21:32;4.30;99.90
46590;DHT22;32313;48.722;9.362;2024-03-06T06:23:58;4.30;99.90
46590;DHT22;32313;48.722;9.362;2024-03-06T06:26:24;4.30;99.90
46590;DHT22;32313;48.722;9.362;2024-03-06T06:28:50;4.40;99.90
46590;DHT22;32313;48.722;9.362;2024-03-06T06:31:15;4.40;99.90
46590;DHT22;32313;48.722;9.362;2024-03-06T06:33:41;4.40;99.90
46590;DHT22;32313;48.722;9.362;2024-03-06T06:36:07;4.40;99.90
46590;DHT22;32313;48.722;9.362;2024-03-06T06:38:32;4.50;99.90
46590;DHT22;32313;48.722;9.362;2024-03-06T06:40:58;4.50;99.90
46590;DHT22;32313;48.722;9.362;2024-03-06T06:43:26;4.50;99.90
46590;DHT22;32313;48.722;9.362;2024-03-06T06:45:52;4.60;99.90
46590;DHT22;32313;48.722;9.362;2024-03-06T06:48:18;4.60;99.90
46590;DHT22;32313;48.722;9.362;2024-03-06T06:50:44;4.60;99.90
46590;DHT22;32313;48.722;9.362;2024-03-06T06:53:09;4.70;99.90
46590;DHT22;32313;48.722;9.362;2024-03-06T06:55:35;4.70;99.90
46590;DHT22;32313;48.722;9.362;2024-03-06T06:58:01;4.70;99.90
46590;DHT22;32313;48.722;9.362;2024-03-06T07:00:27;4.80;99.90
46590;DHT22;32313;48.722;9.362;2024-03-06T07:02:54;4.80;99.90
46590;DHT22;32313;48.722;9.362;2024-03-06T07:05:20;4.80;99.90
46590;DHT22;32313;48.722;9.362;2024-03-06T07:07:45;4.90;99.90
46590;DHT22;32313;48.722;9.362;2024-03-06T07:10:11;4.90;99.90
46590;DHT22;32313;48.722;9.362;2024-03-06T07:12:37;4.90;99.90
46590;DHT22;32313;48.722;9.362;2024-03-06T07:15:03;5.00;99.90
46590;DHT22;32313;48.722;9.362;2024-03-06T07:17:29;5.00;99.90
46590;DHT22;32313;48.722;9.362;2024-03-06T07:19:54;5.00;99.90
46590;DHT22;32313;48.722;9.362;2024-03-06T07:22:21;5.00;99.90
46590;DHT22;32313;48.722;9.362;2024-03-06T07:24:47;5.00;99.90
46590;DHT22;32313;48.722;9.362;2024-03-06T07:27:12;5.10;99.90
46590;DHT22;32313;48.722;9.362;2024-03-06T07:29:38;5.10;99.90
46590;DHT22;32313;48.722;9.362;2024-03-06T07:32:04;5.10;99.90
46590;DHT22;32313;48.722;9.362;2024-03-06T07:34:33;5.20;99.90
46590;DHT22;32313;48.722;9.362;2024-03-06T07:36:59;5.20;99.90
46590;DHT22;32313;48.722;9.362;2024-03-06T07:39:27;5.20;99.90
46590;DHT22;32313;48.722;9.362;2024-03-06T07:41:54;5.30;99.90
46590;DHT22;32313;48.722;9.362;2024-03-06T07:44:20;5.30;99.90
46590;DHT22;32313;48.722;9.362;2024-03-06T07:46:46;5.40;99.90
46590;DHT22;32313;48.722;9.362;2024-03-06T07:49:12;5.50;99.90
46590;DHT22;32313;48.722;9.362;2024-03-06T07:51:37;5.50;99.90
46590;DHT22;32313;48.722;9.362;2024-03-06T07:54:03;5.50;99.90
46590;DHT22;32313;48.722;9.362;2024-03-06T07:56:37;5.50;99.90
46590;DHT22;32313;48.722;9.362;2024-03-06T07:59:03;5.50;99.90
46590;DHT22;32313;48.722;9.362;2024-03-06T08:01:31;5.50;99.90
46590;DHT22;32313;48.722;9.362;2024-03-06T08:03:58;5.60;99.90
46590;DHT22;32313;48.722;9.362;2024-03-06T08:06:24;5.60;99.90
46590;DHT22;32313;48.722;9.362;2024-03-06T08:08:50;5.60;99.90
46590;DHT22;32313;48.722;9.362;2024-03-06T08:11:17;5.70;99.90
46590;DHT22;32313;48.722;9.362;2024-03-06T08:13:43;5.70;99.90
46590;DHT22;32313;48.722;9.362;2024-03-06T08:16:09;5.70;99.90
46590;DHT22;32313;48.722;9.362;2024-03-06T08:18:36;5.80;99.90
46590;DHT22;32313;48.722;9.362;2024-03-06T08:21:04;5.80;99.90
46590;DHT22;32313;48.722;9.362;2024-03-06T08:23:31;5.80;99.90
46590;DHT22;32313;48.722;9.362;2024-03-06T08:25:59;5.80;99.90
46590;DHT22;32313;48.722;9.362;2024-03-06T08:28:25;5.90;99.90
46590;DHT22;32313;48.722;9.362;2024-03-06T08:30:52;5.90;99.90
46590;DHT22;32313;48.722;9.362;2024-03-06T08:33:18;5.90;99.90
46590;DHT22;32313;48.722;9.362;2024-03-06T08:35:44;6.00;99.90
46590;DHT22;32313;48.722;9.362;2024-03-06T08:38:10;5.90;99.90
46590;DHT22;32313;48.722;9.362;2024-03-06T08:40:36;6.00;99.90
46590;DHT22;32313;48.722;9.362;2024-03-06T08:43:03;6.00;99.90
46590;DHT22;32313;48.722;9.362;2024-03-06T08:45:29;6.00;99.90
46590;DHT22;32313;48.722;9.362;2024-03-06T08:47:54;5.90;99.90
46590;DHT22;32313;48.722;9.362;2024-03-06T08:50:20;5.90;99.90
46590;DHT22;32313;48.722;9.362;2024-03-06T08:52:46;5.90;99.90
46590;DHT22;32313;48.722;9.362;2024-03-06T08:55:13;5.90;99.90
46590;DHT22;32313;48.722;9.362;2024-03-06T08:57:39;5.90;99.90
46590;DHT22;32313;48.722;9.362;2024-03-06T09:00:07;5.90;99.90
46590;DHT22;32313;48.722;9.362;2024-03-06T09:02:37;6.00;99.90
46590;DHT22;32313;48.722;9.362;2024-03-06T09:05:10;6.00;99.90
46590;DHT22;32313;48.722;9.362;2024-03-06T09:07:38;6.10;99.90
46590;DHT22;32313;48.722;9.362;2024-03-06T09:12:32;6.00;99.90
46590;DHT22;32313;48.722;9.362;2024-03-06T09:14:58;6.00;99.90
46590;DHT22;32313;48.722;9.362;2024-03-06T09:17:26;6.00;99.90
46590;DHT22;32313;48.722;9.362;2024-03-06T09:19:52;6.00;99.90
46590;DHT22;32313;48.722;9.362;2024-03-06T09:22:17;6.00;99.90
46590;DHT22;32313;48.722;9.362;2024-03-06T09:24:43;6.00;99.90
46590;DHT22;32313;48.722;9.362;2024-03-06T09:27:09;5.90;99.90
46590;DHT22;32313;48.722;9.362;2024-03-06T09:29:34;5.90;99.90
46590;DHT22;32313;48.722;9.362;2024-03-06T09:32:00;5.90;99.90
46590;DHT22;32313;48.722;9.362;2024-03-06T09:34:26;5.90;99.90
46590;DHT22;32313;48.722;9.362;2024-03-06T09:36:53;6.00;99.90
46590;DHT22;32313;48.722;9.362;2024-03-06T09:39:19;6.00;99.90
46590;DHT22;32313;48.722;9.362;2024-03-06T09:41:53;6.00;99.90
46590;DHT22;32313;48.722;9.362;2024-03-06T09:44:20;6.00;99.90
46590;DHT22;32313;48.722;9.362;2024-03-06T09:46:47;6.00;99.90
46590;DHT22;32313;48.722;9.362;2024-03-06T09:49:18;6.00;99.90
46590;DHT22;32313;48.722;9.362;2024-03-06T09:51:46;6.00;99.90
46590;DHT22;32313;48.722;9.362;2024-03-06T09:54:14;5.90;99.90
46590;DHT22;32313;48.722;9.362;2024-03-06T09:56:46;5.90;99.90
46590;DHT22;32313;48.722;9.362;2024-03-06T09:59:12;5.90;99.90
46590;DHT22;32313;48.722;9.362;2024-03-06T10:01:42;5.90;99.90
46590;DHT22;32313;48.722;9.362;2024-03-06T10:04:26;5.90;99.90
46590;DHT22;32313;48.722;9.362;2024-03-06T10:06:57;5.90;99.90
46590;DHT22;32313;48.722;9.362;2024-03-06T10:09:24;5.90;99.90
46590;DHT22;32313;48.722;9.362;2024-03-06T10:11:50;5.90;99.90
46590;DHT22;32313;48.722;9.362;2024-03-06T10:14:19;5.90;99.90
46590;DHT22;32313;48.722;9.362;2024-03-06T10:19:18;6.10;99.90
46590;DHT22;32313;48.722;9.362;2024-03-06T10:21:48;6.10;99.90
46590;DHT22;32313;48.722;9.362;2024-03-06T10:24:27;6.10;99.90
46590;DHT22;32313;48.722;9.362;2024-03-06T10:26:55;6.10;99.90
46590;DHT22;32313;48.722;9.362;2024-03-06T10:29:22;6.10;99.90
46590;DHT22;32313;48.722;9.362;2024-03-06T10:31:53;6.10;99.90
46590;DHT22;32313;48.722;9.362;2024-03-06T10:34:28;6.10;99.90
46590;DHT22;32313;48.722;9.362;2024-03-06T10:37:02;6.20;99.90
46590;DHT22;32313;48.722;9.362;2024-03-06T10:39:31;6.20;99.90
46590;DHT22;32313;48.722;9.362;2024-03-06T10:42:02;6.20;99.90
46590;DHT22;32313;48.722;9.362;2024-03-06T10:44:28;6.20;99.90
46590;DHT22;32313;48.722;9.362;2024-03-06T10:47:05;6.20;99.90
46590;DHT22;32313;48.722;9.362;2024-03-06T10:49:32;6.30;99.90
46590;DHT22;32313;48.722;9.362;2024-03-06T10:52:00;6.40;99.90
46590;DHT22;32313;48.722;9.362;2024-03-06T10:54:30;6.50;99.90
46590;DHT22;32313;48.722;9.362;2024-03-06T10:56:56;6.50;99.90
46590;DHT22;32313;48.722;9.362;2024-03-06T10:59:24;6.60;99.90
46590;DHT22;32313;48.722;9.362;2024-03-06T11:01:57;6.70;99.90
46590;DHT22;32313;48.722;9.362;2024-03-06T11:04:27;6.70;99.90
46590;DHT22;32313;48.722;9.362;2024-03-06T11:06:55;6.80;99.90
46590;DHT22;32313;48.722;9.362;2024-03-06T11:09:21;6.90;99.90
46590;DHT22;32313;48.722;9.362;2024-03-06T11:11:51;6.90;99.90
46590;DHT22;32313;48.722;9.362;2024-03-06T11:14:18;6.90;99.90
46590;DHT22;32313;48.722;9.362;2024-03-06T11:16:57;6.90;99.90
46590;DHT22;32313;48.722;9.362;2024-03-06T11:19:24;6.80;99.90
46590;DHT22;32313;48.722;9.362;2024-03-06T11:21:49;6.80;99.90
46590;DHT22;32313;48.722;9.362;2024-03-06T11:24:23;6.80;99.90
46590;DHT22;32313;48.722;9.362;2024-03-06T11:26:56;6.90;99.90
46590;DHT22;32313;48.722;9.362;2024-03-06T11:29:23;6.90;99.90
46590;DHT22;32313;48.722;9.362;2024-03-06T11:32:07;6.90;99.90
46590;DHT22;32313;48.722;9.362;2024-03-06T11:34:36;6.90;99.90
46590;DHT22;32313;48.722;9.362;2024-03-06T11:37:04;7.00;99.90
46590;DHT22;32313;48.722;9.362;2024-03-06T11:39:36;7.00;99.90
46590;DHT22;32313;48.722;9.362;2024-03-06T11:42:03;6.90;99.90
46590;DHT22;32313;48.722;9.362;2024-03-06T11:44:53;6.90;99.90
46590;DHT22;32313;48.722;9.362;2024-03-06T11:47:20;7.00;99.90
46590;DHT22;32313;48.722;9.362;2024-03-06T11:49:46;7.00;99.90
46590;DHT22;32313;48.722;9.362;2024-03-06T11:52:11;7.00;99.90
46590;DHT22;32313;48.722;9.362;2024-03-06T11:54:37;7.00;99.90
46590;DHT22;32313;48.722;9.362;2024-03-06T11:57:04;7.10;99.90
46590;DHT22;32313;48.722;9.362;2024-03-06T11:59:36;7.10;99.90
46590;DHT22;32313;48.722;9.362;2024-03-06T12:02:04;7.10;99.90
46590;DHT22;32313;48.722;9.362;2024-03-06T12:04:31;7.10;99.90
46590;DHT22;32313;48.722;9.362;2024-03-06T12:06:59;7.10;99.90
46590;DHT22;32313;48.722;9.362;2024-03-06T12:09:25;7.20;99.90
46590;DHT22;32313;48.722;9.362;2024-03-06T12:11:52;7.30;99.90
46590;DHT22;32313;48.722;9.362;2024-03-06T12:14:19;7.40;99.90
46590;DHT22;32313;48.722;9.362;2024-03-06T12:16:58;7.30;99.90
46590;DHT22;32313;48.722;9.362;2024-03-06T12:19:26;7.30;99.90
46590;DHT22;32313;48.722;9.362;2024-03-06T12:21:53;7.20;99.90
46590;DHT22;32313;48.722;9.362;2024-03-06T12:24:19;7.20;99.90
46590;DHT22;32313;48.722;9.362;2024-03-06T12:26:45;7.20;99.90
46590;DHT22;32313;48.722;9.362;2024-03-06T12:29:17;7.20;99.90
46590;DHT22;32313;48.722;9.362;2024-03-06T12:31:43;7.10;99.90
46590;DHT22;32313;48.722;9.362;2024-03-06T12:34:13;7.10;99.90
46590;DHT22;32313;48.722;9.362;2024-03-06T12:36:40;7.00;99.90
46590;DHT22;32313;48.722;9.362;2024-03-06T12:39:06;6.90;99.90
46590;DHT22;32313;48.722;9.362;2024-03-06T12:41:39;7.00;99.90
46590;DHT22;32313;48.722;9.362;2024-03-06T12:44:21;7.00;99.90
46590;DHT22;32313;48.722;9.362;2024-03-06T12:46:47;6.90;99.90
46590;DHT22;32313;48.722;9.362;2024-03-06T12:49:14;6.90;99.90
46590;DHT22;32313;48.722;9.362;2024-03-06T12:51:40;7.00;99.90
46590;DHT22;32313;48.722;9.362;2024-03-06T12:54:06;7.00;99.90
46590;DHT22;32313;48.722;9.362;2024-03-06T12:56:34;6.90;99.90
46590;DHT22;32313;48.722;9.362;2024-03-06T12:58:59;6.90;99.90
46590;DHT22;32313;48.722;9.362;2024-03-06T13:01:25;6.80;99.90
46590;DHT22;32313;48.722;9.362;2024-03-06T13:03:51;6.80;99.90
46590;DHT22;32313;48.722;9.362;2024-03-06T13:06:16;6.90;99.90
46590;DHT22;32313;48.722;9.362;2024-03-06T13:08:42;6.80;99.90
46590;DHT22;32313;48.722;9.362;2024-03-06T13:11:09;6.80;99.90
46590;DHT22;32313;48.722;9.362;2024-03-06T13:13:35;6.80;99.90
46590;DHT22;32313;48.722;9.362;2024-03-06T13:16:03;6.90;99.90
46590;DHT22;32313;48.722;9.362;2024-03-06T13:18:29;6.90;99.90
46590;DHT22;32313;48.722;9.362;2024-03-06T13:20:54;6.90;99.90
46590;DHT22;32313;48.722;9.362;2024-03-06T13:23:20;6.90;99.90
46590;DHT22;32313;48.722;9.362;2024-03-06T13:25:47;7.00;99.90
46590;DHT22;32313;48.722;9.362;2024-03-06T13:28:13;7.00;99.90
46590;DHT22;32313;48.722;9.362;2024-03-06T13:30:39;7.00;99.90
46590;DHT22;32313;48.722;9.362;2024-03-06T13:33:05;7.00;99.90
46590;DHT22;32313;48.722;9.362;2024-03-06T13:35:31;7.00;99.90
46590;DHT22;32313;48.722;9.362;2024-03-06T13:37:57;7.00;99.90
46590;DHT22;32313;48.722;9.362;2024-03-06T13:40:22;6.90;99.90
46590;DHT22;32313;48.722;9.362;2024-03-06T13:42:48;6.90;99.90
46590;DHT22;32313;48.722;9.362;2024-03-06T13:45:15;6.80;99.90
46590;DHT22;32313;48.722;9.362;2024-03-06T13:47:42;6.80;99.90
46590;DHT22;32313;48.722;9.362;2024-03-06T13:50:09;6.80;99.90
46590;DHT22;32313;48.722;9.362;2024-03-06T13:52:35;6.70;99.90
46590;DHT22;32313;48.722;9.362;2024-03-06T13:55:01;6.70;99.90
46590;DHT22;32313;48.722;9.362;2024-03-06T13:57:36;6.70;99.90
46590;DHT22;32313;48.722;9.362;2024-03-06T14:00:04;6.70;99.90
46590;DHT22;32313;48.722;9.362;2024-03-06T14:02:46;6.70;99.90
46590;DHT22;32313;48.722;9.362;2024-03-06T14:05:14;6.70;99.90
46590;DHT22;32313;48.722;9.362;2024-03-06T14:07:42;6.70;99.90
46590;DHT22;32313;48.722;9.362;2024-03-06T14:10:08;6.70;99.90
46590;DHT22;32313;48.722;9.362;2024-03-06T14:12:37;6.70;99.90
46590;DHT22;32313;48.722;9.362;2024-03-06T14:15:07;6.70;99.90
46590;DHT22;32313;48.722;9.362;2024-03-06T14:17:40;6.70;99.90
46590;DHT22;32313;48.722;9.362;2024-03-06T14:20:06;6.70;99.90
46590;DHT22;32313;48.722;9.362;2024-03-06T14:22:32;6.80;99.90
46590;DHT22;32313;48.722;9.362;2024-03-06T14:24:58;6.80;99.90
46590;DHT22;32313;48.722;9.362;2024-03-06T14:27:23;6.80;99.90
46590;DHT22;32313;48.722;9.362;2024-03-06T14:29:49;6.80;99.90
46590;DHT22;32313;48.722;9.362;2024-03-06T14:32:20;6.90;99.90
46590;DHT22;32313;48.722;9.362;2024-03-06T14:34:46;6.90;99.90
46590;DHT22;32313;48.722;9.362;2024-03-06T14:37:13;6.90;99.90
46590;DHT22;32313;48.722;9.362;2024-03-06T14:39:38;6.90;99.90
46590;DHT22;32313;48.722;9.362;2024-03-06T14:42:05;6.90;99.90
46590;DHT22;32313;48.722;9.362;2024-03-06T14:44:31;6.90;99.90
46590;DHT22;32313;48.722;9.362;2024-03-06T14:46:57;6.90;99.90
46590;DHT22;32313;48.722;9.362;2024-03-06T14:49:23;6.90;99.90
46590;DHT22;32313;48.722;9.362;2024-03-06T14:51:48;6.90;99.90
46590;DHT22;32313;48.722;9.362;2024-03-06T14:54:14;6.90;99.90
46590;DHT22;32313;48.722;9.362;2024-03-06T14:56:40;7.00;99.90
46590;DHT22;32313;48.722;9.362;2024-03-06T14:59:06;7.00;99.90
46590;DHT22;32313;48.722;9.362;2024-03-06T15:01:32;7.00;99.90
46590;DHT22;32313;48.722;9.362;2024-03-06T15:04:00;7.00;99.90
46590;DHT22;32313;48.722;9.362;2024-03-06T15:06:27;7.00;99.90
46590;DHT22;32313;48.722;9.362;2024-03-06T15:08:52;7.00;99.90
46590;DHT22;32313;48.722;9.362;2024-03-06T15:11:21;7.00;99.90
46590;DHT22;32313;48.722;9.362;2024-03-06T15:13:48;7.00;99.90
46590;DHT22;32313;48.722;9.362;2024-03-06T15:16:14;7.00;99.90
46590;DHT22;32313;48.722;9.362;2024-03-06T15:18:40;7.00;99.90
46590;DHT22;32313;48.722;9.362;2024-03-06T15:21:06;7.00;99.90
46590;DHT22;32313;48.722;9.362;2024-03-06T15:23:32;7.00;99.90
46590;DHT22;32313;48.722;9.362;2024-03-06T15:25:58;7.00;99.90
46590;DHT22;32313;48.722;9.362;2024-03-06T15:28:24;7.00;99.90
46590;DHT22;32313;48.722;9.362;2024-03-06T15:30:50;7.00;99.90
46590;DHT22;32313;48.722;9.362;2024-03-06T15:33:16;7.00;99.90
46590;DHT22;32313;48.722;9.362;2024-03-06T15:35:42;6.90;99.90
46590;DHT22;32313;48.722;9.362;2024-03-06T15:38:07;6.90;99.90
46590;DHT22;32313;48.722;9.362;2024-03-06T15:40:33;6.90;99.90
46590;DHT22;32313;48.722;9.362;2024-03-06T15:42:59;6.90;99.90
46590;DHT22;32313;48.722;9.362;2024-03-06T15:45:25;6.90;99.90
46590;DHT22;32313;48.722;9.362;2024-03-06T15:47:51;6.80;99.90
46590;DHT22;32313;48.722;9.362;2024-03-06T15:50:16;6.80;99.90
46590;DHT22;32313;48.722;9.362;2024-03-06T15:52:42;6.80;99.90
46590;DHT22;32313;48.722;9.362;2024-03-06T15:55:09;6.80;99.90